createdAt,value
2019-01-29T00:02:30.337Z,14.27
2019-01-29T00:08:09.954Z,11.13
2019-01-29T00:10:39.898Z,22.27
2019-01-29T00:13:10.893Z,10.37
2019-01-29T00:18:23.369Z,9.83
2019-01-29T00:21:12.265Z,10.10
2019-01-29T00:24:01.050Z,8.10
2019-01-29T00:30:00.604Z,11.50
2019-01-29T00:35:38.624Z,9.33
2019-01-29T00:41:19.134Z,9.83
2019-01-29T00:43:58.345Z,7.73
2019-01-29T00:46:47.123Z,8.87
2019-01-29T00:52:42.130Z,8.20
2019-01-29T00:55:28.569Z,9.67
2019-01-29T00:58:31.932Z,4.50
2019-01-29T01:01:08.688Z,6.03
2019-01-29T01:04:18.088Z,3.97
2019-01-29T01:07:27.596Z,6.30
2019-01-29T01:10:15.875Z,6.40
2019-01-29T01:15:48.944Z,4.67
2019-01-29T01:18:30.171Z,5.40
2019-01-29T01:21:17.143Z,5.40
2019-01-29T01:23:58.160Z,7.37
2019-01-29T01:30:00.204Z,5.47
2019-01-29T01:32:51.006Z,6.50
2019-01-29T01:38:39.461Z,6.30
2019-01-29T01:41:30.258Z,7.10
2019-01-29T01:47:21.561Z,9.03
2019-01-29T01:50:03.731Z,9.00
2019-01-29T01:52:23.643Z,16.13
2019-01-29T01:58:13.555Z,12.23
2019-01-29T02:00:43.882Z,9.37
2019-01-29T02:03:14.098Z,13.83
2019-01-29T02:05:44.620Z,14.27
2019-01-29T02:08:14.847Z,14.20
2019-01-29T02:14:25.779Z,13.20
2019-01-29T02:20:06.810Z,13.20
2019-01-29T02:22:49.925Z,11.23
2019-01-29T02:25:31.629Z,12.80
2019-01-29T02:28:13.374Z,13.13
2019-01-29T02:30:57.802Z,16.23
2019-01-29T02:33:39.753Z,15.77
2019-01-29T02:36:21.353Z,14.60
2019-01-29T02:38:52.194Z,13.07
2019-01-29T02:42:01.012Z,11.77
2019-01-29T02:54:27.391Z,14.43
2019-01-29T02:57:30.187Z,19.80
2019-01-29T03:03:42.021Z,13.13
2019-01-29T03:06:20.865Z,15.90
2019-01-29T03:09:24.691Z,15.80
2019-01-29T03:12:23.868Z,14.60
2019-01-29T03:14:33.872Z,12.13
2019-01-29T03:17:03.804Z,12.90
2019-01-29T03:19:34.228Z,10.23
2019-01-29T03:22:42.142Z,9.57
2019-01-29T03:28:53.825Z,15.17
2019-01-29T03:34:23.326Z,14.00
2019-01-29T03:37:12.413Z,16.07
2019-01-29T03:42:50.610Z,11.03
2019-01-29T03:45:39.680Z,11.97
2019-01-29T03:48:28.759Z,14.57
2019-01-29T04:00:10.417Z,13.77
2019-01-29T04:06:19.011Z,10.17
2019-01-29T04:09:09.203Z,7.67
2019-01-29T04:12:10.355Z,18.73
2019-01-29T04:15:03.418Z,11.70
2019-01-29T04:24:12.915Z,10.33
2019-01-29T04:27:20.817Z,13.13
2019-01-29T04:30:05.144Z,11.30
2019-01-29T04:32:46.529Z,17.73
2019-01-29T04:35:27.827Z,17.00
2019-01-29T04:40:51.403Z,12.07
2019-01-29T04:43:32.651Z,12.60
2019-01-29T04:46:17.066Z,10.03
2019-01-29T04:48:59.008Z,16.63
2019-01-29T04:51:40.560Z,13.20
2019-01-29T04:54:22.260Z,15.63
2019-01-29T04:57:04.110Z,16.47
2019-01-29T04:59:45.603Z,12.10
2019-01-29T05:02:27.498Z,15.40
2019-01-29T05:08:25.861Z,17.40
2019-01-29T05:14:06.902Z,17.83
2019-01-29T05:16:57.761Z,11.07
2019-01-29T05:19:46.782Z,9.23
2019-01-29T05:22:36.012Z,13.40
2019-01-29T05:28:24.659Z,16.27
2019-01-29T05:31:13.562Z,19.00
2019-01-29T05:34:02.654Z,15.70
2019-01-29T05:37:03.499Z,16.23
2019-01-29T05:40:01.611Z,16.20
2019-01-29T05:42:31.608Z,18.10
2019-01-29T05:45:39.871Z,18.80
2019-01-29T05:48:29.228Z,20.27
2019-01-29T05:51:30.310Z,20.20
2019-01-29T05:54:15.761Z,21.17
2019-01-29T05:56:59.847Z,20.10
2019-01-29T06:02:48.779Z,24.07
2019-01-29T06:05:31.975Z,23.00
2019-01-29T06:08:05.242Z,20.93
2019-01-29T06:13:54.079Z,19.63
2019-01-29T06:20:24.824Z,21.37
2019-01-29T06:23:13.925Z,18.10
2019-01-29T06:26:02.947Z,15.80
2019-01-29T06:28:52.167Z,18.37
2019-01-29T06:31:41.248Z,22.27
2019-01-29T06:34:30.285Z,16.20
2019-01-29T06:37:00.714Z,23.87
2019-01-29T06:39:49.829Z,17.63
2019-01-29T06:42:38.892Z,14.27
2019-01-29T06:48:27.346Z,17.53
2019-01-29T06:57:06.584Z,14.57
2019-01-29T07:02:46.430Z,17.67
2019-01-29T07:05:35.628Z,17.00
2019-01-29T07:11:19.882Z,19.87
2019-01-29T07:14:01.743Z,17.83
2019-01-29T07:16:59.581Z,23.60
2019-01-29T07:19:49.901Z,22.00
2019-01-29T07:22:20.547Z,21.40
2019-01-29T07:30:39.260Z,24.70
2019-01-29T07:33:23.686Z,19.53
2019-01-29T07:35:41.727Z,16.07
2019-01-29T07:38:30.902Z,15.20
2019-01-29T07:41:01.030Z,14.80
2019-01-29T07:46:33.525Z,19.83
2019-01-29T07:49:03.896Z,15.63
2019-01-29T07:51:33.942Z,14.50
2019-01-29T07:54:22.918Z,17.60
2019-01-29T07:57:13.319Z,11.63
2019-01-29T07:59:43.577Z,15.83
2019-01-29T08:02:13.514Z,15.27
2019-01-29T08:04:43.310Z,13.97
2019-01-29T08:07:32.286Z,14.10
2019-01-29T08:10:21.104Z,13.73
2019-01-29T08:12:52.148Z,10.90
2019-01-29T08:15:22.251Z,15.60
2019-01-29T08:17:52.038Z,17.80
2019-01-29T08:20:22.682Z,14.77
2019-01-29T08:25:47.879Z,18.77
2019-01-29T08:28:14.550Z,17.37
2019-01-29T08:31:03.449Z,12.23
2019-01-29T08:33:33.270Z,13.23
2019-01-29T08:36:03.480Z,15.77
2019-01-29T08:38:33.239Z,18.87
2019-01-29T08:41:04.461Z,18.87
2019-01-29T08:43:34.783Z,15.77
2019-01-29T08:46:05.219Z,15.60
2019-01-29T08:48:35.313Z,12.67
2019-01-29T08:51:05.363Z,9.10
2019-01-29T08:53:54.196Z,11.30
2019-01-29T08:56:24.204Z,9.47
2019-01-29T08:59:12.991Z,13.40
2019-01-29T09:01:42.879Z,9.43
2019-01-29T09:04:12.766Z,12.07
2019-01-29T09:09:50.588Z,7.70
2019-01-29T09:13:00.013Z,6.07
2019-01-29T09:15:30.880Z,10.40
2019-01-29T09:18:01.216Z,6.00
2019-01-29T09:20:31.070Z,5.77
2019-01-29T09:23:00.861Z,7.43
2019-01-29T09:29:17.739Z,6.57
2019-01-29T09:32:17.694Z,6.07
2019-01-29T09:37:38.313Z,4.63
2019-01-29T09:40:10.962Z,6.60
2019-01-29T09:43:18.589Z,6.33
2019-01-29T09:45:48.784Z,3.93
2019-01-29T09:48:19.380Z,5.10
2019-01-29T09:50:49.202Z,6.17
2019-01-29T09:53:19.127Z,4.37
2019-01-29T09:55:49.382Z,3.50
2019-01-29T09:58:19.298Z,3.47
2019-01-29T10:03:58.510Z,2.00
2019-01-29T10:06:47.377Z,3.03
2019-01-29T10:09:36.291Z,2.60
2019-01-29T10:18:01.572Z,2.70
2019-01-29T10:20:32.084Z,5.13
2019-01-29T10:23:02.017Z,2.40
2019-01-29T10:25:50.954Z,5.13
2019-01-29T10:28:20.941Z,1.33
2019-01-29T10:30:50.800Z,1.73
2019-01-29T10:33:21.271Z,1.30
2019-01-29T10:36:05.196Z,1.63
2019-01-29T10:38:46.563Z,2.27
2019-01-29T10:41:16.428Z,3.27
2019-01-29T10:43:46.234Z,3.67
2019-01-29T10:46:16.485Z,5.53
2019-01-29T10:48:46.358Z,2.37
2019-01-29T10:51:16.272Z,3.50
2019-01-29T10:54:08.008Z,2.60
2019-01-29T10:56:37.890Z,1.87
2019-01-29T10:59:07.999Z,4.27
2019-01-29T11:01:37.992Z,4.67
2019-01-29T11:04:08.063Z,3.03
2019-01-29T11:06:56.917Z,8.00
2019-01-29T11:09:26.971Z,2.37
2019-01-29T11:12:15.927Z,2.73
2019-01-29T11:14:45.745Z,1.60
2019-01-29T11:17:34.773Z,2.50
2019-01-29T11:20:16.573Z,4.50
2019-01-29T11:23:03.800Z,2.63
2019-01-29T11:25:34.074Z,1.90
2019-01-29T11:28:22.976Z,1.77
2019-01-29T11:30:53.050Z,5.33
2019-01-29T11:33:42.271Z,2.50
2019-01-29T11:36:31.229Z,3.63
2019-01-29T11:39:01.554Z,7.03
2019-01-29T11:41:31.635Z,1.43
2019-01-29T11:44:01.567Z,3.40
2019-01-29T11:46:31.878Z,5.07
2019-01-29T11:49:02.775Z,4.37
2019-01-29T11:51:33.480Z,5.53
2019-01-29T11:54:03.653Z,5.43
2019-01-29T11:56:33.572Z,2.43
2019-01-29T11:59:03.756Z,4.87
2019-01-29T12:01:34.391Z,3.87
2019-01-29T12:04:04.355Z,4.97
2019-01-29T12:06:34.699Z,4.90
2019-01-29T12:09:08.064Z,3.57
2019-01-29T12:11:38.207Z,3.87
2019-01-29T12:14:08.233Z,4.77
2019-01-29T12:16:38.696Z,4.90
2019-01-29T12:19:08.941Z,2.97
2019-01-29T12:21:57.853Z,3.23
2019-01-29T12:24:39.701Z,5.03
2019-01-29T12:27:10.256Z,7.60
2019-01-29T12:29:59.099Z,5.87
2019-01-29T12:32:29.435Z,5.80
2019-01-29T12:34:59.379Z,7.10
2019-01-29T12:37:50.191Z,4.03
2019-01-29T12:43:10.903Z,4.33
2019-01-29T12:45:40.971Z,4.20
2019-01-29T12:48:11.082Z,6.90
2019-01-29T12:53:45.356Z,3.07
2019-01-29T12:59:08.166Z,5.03
2019-01-29T13:01:38.295Z,8.27
2019-01-29T13:04:08.338Z,6.67
2019-01-29T13:06:38.287Z,7.00
2019-01-29T13:09:27.091Z,6.97
2019-01-29T13:18:26.848Z,7.90
2019-01-29T13:20:57.121Z,7.43
2019-01-29T13:23:26.898Z,8.07
2019-01-29T13:25:57.772Z,2.87
2019-01-29T13:28:30.898Z,2.27
2019-01-29T13:31:19.904Z,3.37
2019-01-29T13:33:50.163Z,4.13
2019-01-29T13:36:39.121Z,5.37
2019-01-29T13:39:10.244Z,5.40
2019-01-29T13:41:40.514Z,8.47
2019-01-29T13:44:10.465Z,4.77
2019-01-29T13:46:40.644Z,4.33
2019-01-29T13:49:10.439Z,1.70
2019-01-29T13:51:40.536Z,2.47
2019-01-29T13:54:10.633Z,4.70
2019-01-29T13:56:42.695Z,5.77
2019-01-29T13:59:12.547Z,6.23
2019-01-29T14:04:55.511Z,1.87
2019-01-29T14:07:25.689Z,3.73
2019-01-29T14:10:14.864Z,2.67
2019-01-29T14:12:45.109Z,4.90
2019-01-29T14:15:21.137Z,3.83
2019-01-29T14:17:51.148Z,4.20
2019-01-29T14:20:21.584Z,4.43
2019-01-29T14:22:51.591Z,1.97
2019-01-29T14:25:33.396Z,4.63
2019-01-29T14:27:54.274Z,2.07
2019-01-29T14:30:24.362Z,3.33
2019-01-29T14:33:13.285Z,2.47
2019-01-29T14:35:43.177Z,3.93
2019-01-29T14:39:10.048Z,2.67
2019-01-29T14:41:40.224Z,2.10
2019-01-29T14:44:45.191Z,3.83
2019-01-29T14:50:23.840Z,5.23
2019-01-29T14:55:56.527Z,2.90
2019-01-29T14:58:26.389Z,1.60
2019-01-29T15:00:56.397Z,2.10
2019-01-29T15:03:27.574Z,3.10
2019-01-29T15:05:57.834Z,1.37
2019-01-29T15:08:27.706Z,3.33
2019-01-29T15:11:35.574Z,2.27
2019-01-29T15:17:46.393Z,4.30
2019-01-29T15:20:36.698Z,5.70
2019-01-29T15:23:07.573Z,3.33
2019-01-29T15:25:37.568Z,5.07
2019-01-29T15:28:07.616Z,4.90
2019-01-29T15:30:38.026Z,4.80
2019-01-29T15:33:45.746Z,4.37
2019-01-29T15:36:34.534Z,3.43
2019-01-29T15:42:14.091Z,2.50
2019-01-29T15:44:44.141Z,3.10
2019-01-29T15:47:13.978Z,3.10
2019-01-29T15:49:56.009Z,2.97
2019-01-29T15:52:53.658Z,3.70
2019-01-29T15:55:23.958Z,6.03
2019-01-29T15:57:54.137Z,7.00
2019-01-29T16:01:16.432Z,4.27
2019-01-29T16:03:33.702Z,3.17
2019-01-29T16:09:04.859Z,3.00
2019-01-29T16:11:35.402Z,5.03
2019-01-29T16:14:08.398Z,4.70
2019-01-29T16:16:38.596Z,4.17
2019-01-29T16:19:08.664Z,2.77
2019-01-29T16:21:38.567Z,4.20
2019-01-29T16:24:27.468Z,1.57
2019-01-29T16:27:22.585Z,2.43
2019-01-29T16:29:48.104Z,4.03
2019-01-29T16:32:19.006Z,2.10
2019-01-29T16:35:08.152Z,4.90
2019-01-29T16:37:57.019Z,5.77
2019-01-29T16:40:30.411Z,5.13
2019-01-29T16:43:12.730Z,5.03
2019-01-29T16:45:34.081Z,4.27
2019-01-29T16:48:22.925Z,5.00
2019-01-29T16:50:53.242Z,5.40
2019-01-29T16:53:42.096Z,3.80
2019-01-29T16:56:31.315Z,3.47
2019-01-29T16:59:01.439Z,4.27
2019-01-29T17:01:52.846Z,2.13
2019-01-29T17:04:41.817Z,2.90
2019-01-29T17:07:12.002Z,2.73
2019-01-29T17:09:41.847Z,4.63
2019-01-29T17:12:11.696Z,3.00
2019-01-29T17:14:41.894Z,3.57
2019-01-29T17:17:11.846Z,2.77
2019-01-29T17:19:41.808Z,4.83
2019-01-29T17:22:12.197Z,5.23
2019-01-29T17:24:42.129Z,4.37
2019-01-29T17:27:12.127Z,5.57
2019-01-29T17:29:42.259Z,2.77
2019-01-29T17:32:12.163Z,4.93
2019-01-29T17:34:42.502Z,4.07
2019-01-29T17:40:12.602Z,2.57
2019-01-29T17:43:01.414Z,2.97
2019-01-29T17:45:53.212Z,5.17
2019-01-29T17:49:01.013Z,3.03
2019-01-29T17:51:31.378Z,5.73
2019-01-29T17:54:01.558Z,4.10
2019-01-29T17:56:31.464Z,2.13
2019-01-29T17:59:01.349Z,5.27
2019-01-29T18:01:32.680Z,3.83
2019-01-29T18:04:21.699Z,4.07
2019-01-29T18:07:10.478Z,3.60
2019-01-29T18:09:40.544Z,2.60
2019-01-29T18:12:29.310Z,3.07
2019-01-29T18:18:21.461Z,5.37
2019-01-29T18:20:54.865Z,3.60
2019-01-29T18:23:25.175Z,7.37
2019-01-29T18:26:14.478Z,2.93
2019-01-29T18:29:12.398Z,4.73
2019-01-29T18:32:12.884Z,4.77
2019-01-29T18:34:32.898Z,4.23
2019-01-29T18:39:56.442Z,4.60
2019-01-29T18:42:26.733Z,2.33
2019-01-29T18:45:34.477Z,3.43
2019-01-29T18:48:23.502Z,3.93
2019-01-29T18:50:53.537Z,5.43
2019-01-29T18:53:42.530Z,5.53
2019-01-29T18:58:55.211Z,5.17
2019-01-29T19:01:30.144Z,3.97
2019-01-29T19:04:00.045Z,3.13
2019-01-29T19:06:48.862Z,3.77
2019-01-29T19:09:18.825Z,3.40
2019-01-29T19:12:07.709Z,1.83
2019-01-29T19:14:37.724Z,3.23
2019-01-29T19:17:09.209Z,2.83
2019-01-29T19:19:58.213Z,5.00
2019-01-29T19:22:28.387Z,2.23
2019-01-29T19:24:58.506Z,3.00
2019-01-29T19:27:47.467Z,4.27
2019-01-29T19:30:28.608Z,2.53
2019-01-29T19:35:39.468Z,2.47
2019-01-29T19:38:21.211Z,4.20
2019-01-29T19:41:02.575Z,6.43
2019-01-29T19:43:32.979Z,6.57
2019-01-29T19:46:03.179Z,7.27
2019-01-29T19:48:33.170Z,3.73
2019-01-29T19:51:03.457Z,2.67
2019-01-29T19:56:22.404Z,3.50
2019-01-29T19:58:52.392Z,4.20
2019-01-29T20:01:41.983Z,4.10
2019-01-29T20:04:12.052Z,1.97
2019-01-29T20:06:42.360Z,4.03
2019-01-29T20:09:31.603Z,6.03
2019-01-29T20:12:20.646Z,5.57
2019-01-29T20:15:28.562Z,2.73
2019-01-29T20:18:20.467Z,4.67
2019-01-29T20:24:36.824Z,5.43
2019-01-29T20:35:59.209Z,6.53
2019-01-29T20:38:35.095Z,4.27
2019-01-29T20:41:01.471Z,4.20
2019-01-29T20:43:31.998Z,3.47
2019-01-29T20:46:13.086Z,4.87
2019-01-29T20:48:54.409Z,4.83
2019-01-29T20:51:35.656Z,3.30
2019-01-29T20:54:17.027Z,5.60
2019-01-29T20:56:58.533Z,4.47
2019-01-29T20:59:40.069Z,8.47
2019-01-29T21:04:54.243Z,5.60
2019-01-29T21:07:42.254Z,4.20
2019-01-29T21:14:01.937Z,7.77
2019-01-29T21:16:50.841Z,5.53
2019-01-29T21:19:21.583Z,5.97
2019-01-29T21:22:10.567Z,4.87
2019-01-29T21:24:40.930Z,11.33
2019-01-29T21:27:11.087Z,3.40
2019-01-29T21:33:02.438Z,8.50
2019-01-29T21:35:46.295Z,3.93
2019-01-29T21:38:23.754Z,4.93
2019-01-29T21:41:08.051Z,7.30
2019-01-29T21:43:44.605Z,4.53
2019-01-29T21:46:35.993Z,3.27
2019-01-29T21:49:24.955Z,6.93
2019-01-29T21:52:13.948Z,3.90
2019-01-29T21:55:02.904Z,7.40
2019-01-29T21:57:33.331Z,3.30
2019-01-29T22:00:46.608Z,3.93
2019-01-29T22:03:17.428Z,3.53
2019-01-29T22:05:58.972Z,5.17
2019-01-29T22:08:40.686Z,6.53
2019-01-29T22:11:22.458Z,3.97
2019-01-29T22:14:04.112Z,7.93
2019-01-29T22:16:45.735Z,4.23
2019-01-29T22:19:26.625Z,4.13
2019-01-29T22:21:56.817Z,3.37
2019-01-29T22:24:26.814Z,2.67
2019-01-29T22:27:16.043Z,3.23
2019-01-29T22:33:33.979Z,6.13
2019-01-29T22:36:36.685Z,3.97
2019-01-29T22:38:54.770Z,3.73
2019-01-29T22:45:04.587Z,4.37
2019-01-29T22:47:44.760Z,4.10
2019-01-29T22:50:42.124Z,4.07
2019-01-29T22:53:31.022Z,2.30
2019-01-29T22:56:19.875Z,2.87
2019-01-29T22:59:08.636Z,2.87
2019-01-29T23:01:57.551Z,4.27
2019-01-29T23:07:55.575Z,6.23
2019-01-29T23:14:12.625Z,2.50
2019-01-29T23:20:22.895Z,4.03
2019-01-29T23:22:59.109Z,4.30
2019-01-29T23:25:40.419Z,6.63
2019-01-29T23:28:49.633Z,3.50
2019-01-29T23:31:38.509Z,1.70
2019-01-29T23:34:27.308Z,4.43
2019-01-29T23:37:16.336Z,3.80
2019-01-29T23:40:25.076Z,2.07
2019-01-29T23:43:14.848Z,3.47
2019-01-29T23:49:31.789Z,2.73
2019-01-29T23:52:20.870Z,2.97
2019-01-29T23:55:10.093Z,5.37
2019-01-29T23:57:58.962Z,1.93
